sensor_id;sensor_type;location;lat;lon;timestamp;P1;durP1;ratioP1;P2;durP2;ratioP2
76725;SDS011;65651;53.154;17.916;2023-04-06T00:01:49;22.30;;;9.10;;
76725;SDS011;65651;53.154;17.916;2023-04-06T00:04:17;17.30;;;7.40;;
76725;SDS011;65651;53.154;17.916;2023-04-06T00:06:44;20.70;;;9.30;;
76725;SDS011;65651;53.154;17.916;2023-04-06T00:09:14;20.70;;;9.30;;
76725;SDS011;65651;53.154;17.916;2023-04-06T00:11:42;26.40;;;9.30;;
76725;SDS011;65651;53.154;17.916;2023-04-06T00:14:09;27.80;;;9.10;;
76725;SDS011;65651;53.154;17.916;2023-04-06T00:16:36;21.40;;;8.50;;
76725;SDS011;65651;53.154;17.916;2023-04-06T00:19:04;24.70;;;10.00;;
76725;SDS011;65651;53.154;17.916;2023-04-06T00:21:36;25.70;;;10.00;;
76725;SDS011;65651;53.154;17.916;2023-04-06T00:24:06;19.20;;;9.10;;
76725;SDS011;65651;53.154;17.916;2023-04-06T00:26:35;25.40;;;9.80;;
76725;SDS011;65651;53.154;17.916;2023-04-06T00:29:02;21.40;;;9.30;;
76725;SDS011;65651;53.154;17.916;2023-04-06T00:31:30;22.70;;;9.90;;
76725;SDS011;65651;53.154;17.916;2023-04-06T00:34:00;20.00;;;8.80;;
76725;SDS011;65651;53.154;17.916;2023-04-06T00:36:32;21.60;;;9.50;;
76725;SDS011;65651;53.154;17.916;2023-04-06T00:38:59;22.90;;;9.60;;
76725;SDS011;65651;53.154;17.916;2023-04-06T00:41:28;20.80;;;9.40;;
76725;SDS011;65651;53.154;17.916;2023-04-06T00:43:56;22.30;;;9.50;;
76725;SDS011;65651;53.154;17.916;2023-04-06T00:46:24;21.90;;;9.60;;
76725;SDS011;65651;53.154;17.916;2023-04-06T00:48:51;21.00;;;9.00;;
76725;SDS011;65651;53.154;17.916;2023-04-06T00:51:22;25.30;;;9.60;;
76725;SDS011;65651;53.154;17.916;2023-04-06T00:53:50;24.10;;;9.90;;
76725;SDS011;65651;53.154;17.916;2023-04-06T00:56:17;20.70;;;9.50;;
76725;SDS011;65651;53.154;17.916;2023-04-06T00:58:50;24.30;;;10.60;;
76725;SDS011;65651;53.154;17.916;2023-04-06T01:01:18;22.90;;;9.30;;
76725;SDS011;65651;53.154;17.916;2023-04-06T01:03:47;26.80;;;9.80;;
76725;SDS011;65651;53.154;17.916;2023-04-06T01:06:17;20.60;;;9.30;;
76725;SDS011;65651;53.154;17.916;2023-04-06T01:08:46;22.00;;;9.90;;
76725;SDS011;65651;53.154;17.916;2023-04-06T01:11:20;24.70;;;11.00;;
76725;SDS011;65651;53.154;17.916;2023-04-06T01:13:51;23.90;;;9.60;;
76725;SDS011;65651;53.154;17.916;2023-04-06T01:16:28;24.00;;;9.60;;
76725;SDS011;65651;53.154;17.916;2023-04-06T01:19:17;22.10;;;9.70;;
76725;SDS011;65651;53.154;17.916;2023-04-06T01:21:48;24.50;;;9.90;;
76725;SDS011;65651;53.154;17.916;2023-04-06T01:24:26;25.40;;;10.10;;
76725;SDS011;65651;53.154;17.916;2023-04-06T01:27:12;24.40;;;10.10;;
76725;SDS011;65651;53.154;17.916;2023-04-06T01:29:55;25.20;;;9.70;;
76725;SDS011;65651;53.154;17.916;2023-04-06T01:32:58;21.70;;;9.10;;
76725;SDS011;65651;53.154;17.916;2023-04-06T01:35:41;23.70;;;10.20;;
76725;SDS011;65651;53.154;17.916;2023-04-06T01:38:18;20.20;;;9.60;;
76725;SDS011;65651;53.154;17.916;2023-04-06T01:40:45;20.40;;;8.90;;
76725;SDS011;65651;53.154;17.916;2023-04-06T01:43:14;21.50;;;9.10;;
76725;SDS011;65651;53.154;17.916;2023-04-06T01:46:00;21.80;;;9.00;;
76725;SDS011;65651;53.154;17.916;2023-04-06T01:48:32;22.40;;;9.70;;
76725;SDS011;65651;53.154;17.916;2023-04-06T01:51:01;19.00;;;8.50;;
76725;SDS011;65651;53.154;17.916;2023-04-06T01:53:30;19.70;;;7.60;;
76725;SDS011;65651;53.154;17.916;2023-04-06T01:56:02;18.60;;;7.20;;
76725;SDS011;65651;53.154;17.916;2023-04-06T01:58:33;18.80;;;8.00;;
76725;SDS011;65651;53.154;17.916;2023-04-06T02:01:01;13.40;;;6.30;;
76725;SDS011;65651;53.154;17.916;2023-04-06T02:03:31;18.50;;;8.00;;
76725;SDS011;65651;53.154;17.916;2023-04-06T02:06:04;17.90;;;8.90;;
76725;SDS011;65651;53.154;17.916;2023-04-06T02:08:38;13.30;;;5.90;;
76725;SDS011;65651;53.154;17.916;2023-04-06T02:11:09;13.20;;;6.10;;
76725;SDS011;65651;53.154;17.916;2023-04-06T02:13:43;16.60;;;6.20;;
76725;SDS011;65651;53.154;17.916;2023-04-06T02:16:11;16.90;;;6.90;;
76725;SDS011;65651;53.154;17.916;2023-04-06T02:18:38;14.60;;;6.20;;
76725;SDS011;65651;53.154;17.916;2023-04-06T02:21:09;14.10;;;6.70;;
76725;SDS011;65651;53.154;17.916;2023-04-06T02:23:36;15.20;;;6.80;;
76725;SDS011;65651;53.154;17.916;2023-04-06T02:26:03;15.30;;;6.70;;
76725;SDS011;65651;53.154;17.916;2023-04-06T02:28:32;11.90;;;5.30;;
76725;SDS011;65651;53.154;17.916;2023-04-06T02:31:02;17.10;;;6.40;;
76725;SDS011;65651;53.154;17.916;2023-04-06T02:33:30;22.50;;;9.40;;
76725;SDS011;65651;53.154;17.916;2023-04-06T02:35:58;21.70;;;8.70;;
76725;SDS011;65651;53.154;17.916;2023-04-06T02:38:26;19.90;;;9.20;;
76725;SDS011;65651;53.154;17.916;2023-04-06T02:40:54;27.30;;;10.80;;
76725;SDS011;65651;53.154;17.916;2023-04-06T02:43:23;24.70;;;10.90;;
76725;SDS011;65651;53.154;17.916;2023-04-06T02:45:55;28.00;;;11.30;;
76725;SDS011;65651;53.154;17.916;2023-04-06T02:48:26;26.00;;;10.30;;
76725;SDS011;65651;53.154;17.916;2023-04-06T02:50:53;23.40;;;10.70;;
76725;SDS011;65651;53.154;17.916;2023-04-06T02:53:24;18.50;;;8.50;;
76725;SDS011;65651;53.154;17.916;2023-04-06T02:55:51;24.80;;;10.20;;
76725;SDS011;65651;53.154;17.916;2023-04-06T02:58:19;27.50;;;9.90;;
76725;SDS011;65651;53.154;17.916;2023-04-06T03:00:51;28.80;;;10.70;;
76725;SDS011;65651;53.154;17.916;2023-04-06T03:03:18;24.60;;;10.20;;
76725;SDS011;65651;53.154;17.916;2023-04-06T03:05:46;26.60;;;11.40;;
76725;SDS011;65651;53.154;17.916;2023-04-06T03:08:14;21.50;;;10.40;;
76725;SDS011;65651;53.154;17.916;2023-04-06T03:10:44;21.40;;;10.20;;
76725;SDS011;65651;53.154;17.916;2023-04-06T03:13:11;26.60;;;10.00;;
76725;SDS011;65651;53.154;17.916;2023-04-06T03:15:58;22.70;;;8.70;;
76725;SDS011;65651;53.154;17.916;2023-04-06T03:18:26;24.80;;;9.30;;
76725;SDS011;65651;53.154;17.916;2023-04-06T03:20:58;30.30;;;10.10;;
76725;SDS011;65651;53.154;17.916;2023-04-06T03:23:33;23.30;;;9.50;;
76725;SDS011;65651;53.154;17.916;2023-04-06T03:26:04;25.10;;;9.70;;
76725;SDS011;65651;53.154;17.916;2023-04-06T03:28:35;26.00;;;10.00;;
76725;SDS011;65651;53.154;17.916;2023-04-06T03:31:07;26.00;;;9.70;;
76725;SDS011;65651;53.154;17.916;2023-04-06T03:34:09;26.20;;;9.80;;
76725;SDS011;65651;53.154;17.916;2023-04-06T03:36:37;29.70;;;10.30;;
76725;SDS011;65651;53.154;17.916;2023-04-06T03:39:05;23.50;;;9.70;;
76725;SDS011;65651;53.154;17.916;2023-04-06T03:41:35;21.70;;;10.30;;
76725;SDS011;65651;53.154;17.916;2023-04-06T03:44:19;19.10;;;9.80;;
76725;SDS011;65651;53.154;17.916;2023-04-06T03:46:47;23.80;;;10.00;;
76725;SDS011;65651;53.154;17.916;2023-04-06T03:49:16;21.50;;;10.20;;
76725;SDS011;65651;53.154;17.916;2023-04-06T03:51:45;23.10;;;10.00;;
76725;SDS011;65651;53.154;17.916;2023-04-06T03:54:12;26.20;;;9.70;;
76725;SDS011;65651;53.154;17.916;2023-04-06T03:56:40;31.60;;;10.70;;
76725;SDS011;65651;53.154;17.916;2023-04-06T03:59:07;31.70;;;11.00;;
76725;SDS011;65651;53.154;17.916;2023-04-06T04:01:35;34.00;;;12.60;;
76725;SDS011;65651;53.154;17.916;2023-04-06T04:04:03;27.80;;;11.70;;
76725;SDS011;65651;53.154;17.916;2023-04-06T04:06:35;31.90;;;13.10;;
76725;SDS011;65651;53.154;17.916;2023-04-06T04:09:03;34.40;;;13.40;;
76725;SDS011;65651;53.154;17.916;2023-04-06T04:11:30;38.50;;;13.30;;
76725;SDS011;65651;53.154;17.916;2023-04-06T04:13:58;27.40;;;12.60;;
76725;SDS011;65651;53.154;17.916;2023-04-06T04:16:26;42.90;;;14.40;;
76725;SDS011;65651;53.154;17.916;2023-04-06T04:18:54;36.60;;;13.10;;
76725;SDS011;65651;53.154;17.916;2023-04-06T04:21:22;35.30;;;13.10;;
76725;SDS011;65651;53.154;17.916;2023-04-06T04:23:53;40.10;;;13.60;;
76725;SDS011;65651;53.154;17.916;2023-04-06T04:26:21;34.60;;;13.70;;
76725;SDS011;65651;53.154;17.916;2023-04-06T04:28:48;34.80;;;13.50;;
76725;SDS011;65651;53.154;17.916;2023-04-06T04:31:16;40.10;;;13.40;;
76725;SDS011;65651;53.154;17.916;2023-04-06T04:33:48;36.00;;;13.50;;
76725;SDS011;65651;53.154;17.916;2023-04-06T04:36:17;27.40;;;11.90;;
76725;SDS011;65651;53.154;17.916;2023-04-06T04:38:59;37.10;;;12.90;;
76725;SDS011;65651;53.154;17.916;2023-04-06T04:41:33;38.60;;;12.10;;
76725;SDS011;65651;53.154;17.916;2023-04-06T04:44:01;27.90;;;11.30;;
76725;SDS011;65651;53.154;17.916;2023-04-06T04:46:30;32.10;;;11.60;;
76725;SDS011;65651;53.154;17.916;2023-04-06T04:49:01;27.70;;;11.50;;
76725;SDS011;65651;53.154;17.916;2023-04-06T04:51:28;35.00;;;12.80;;
76725;SDS011;65651;53.154;17.916;2023-04-06T04:54:23;26.20;;;10.50;;
76725;SDS011;65651;53.154;17.916;2023-04-06T04:56:55;29.50;;;11.20;;
76725;SDS011;65651;53.154;17.916;2023-04-06T04:59:44;32.70;;;11.80;;
76725;SDS011;65651;53.154;17.916;2023-04-06T05:02:18;26.00;;;10.70;;
76725;SDS011;65651;53.154;17.916;2023-04-06T05:05:04;37.50;;;13.20;;
76725;SDS011;65651;53.154;17.916;2023-04-06T05:07:59;35.10;;;13.10;;
76725;SDS011;65651;53.154;17.916;2023-04-06T05:10:47;31.00;;;11.10;;
76725;SDS011;65651;53.154;17.916;2023-04-06T05:13:18;29.60;;;12.00;;
76725;SDS011;65651;53.154;17.916;2023-04-06T05:15:49;27.70;;;11.20;;
76725;SDS011;65651;53.154;17.916;2023-04-06T05:18:33;30.90;;;13.00;;
76725;SDS011;65651;53.154;17.916;2023-04-06T05:21:01;29.50;;;12.50;;
76725;SDS011;65651;53.154;17.916;2023-04-06T05:23:52;25.40;;;11.20;;
76725;SDS011;65651;53.154;17.916;2023-04-06T05:26:25;38.20;;;12.30;;
76725;SDS011;65651;53.154;17.916;2023-04-06T05:29:10;26.70;;;10.10;;
76725;SDS011;65651;53.154;17.916;2023-04-06T05:31:43;25.80;;;12.00;;
76725;SDS011;65651;53.154;17.916;2023-04-06T05:34:11;31.90;;;12.90;;
76725;SDS011;65651;53.154;17.916;2023-04-06T05:36:39;22.00;;;10.20;;
76725;SDS011;65651;53.154;17.916;2023-04-06T05:39:16;25.10;;;9.40;;
76725;SDS011;65651;53.154;17.916;2023-04-06T05:41:48;20.20;;;10.10;;
76725;SDS011;65651;53.154;17.916;2023-04-06T05:44:18;22.90;;;9.40;;
76725;SDS011;65651;53.154;17.916;2023-04-06T05:46:48;22.00;;;9.60;;
76725;SDS011;65651;53.154;17.916;2023-04-06T05:49:18;19.70;;;9.00;;
76725;SDS011;65651;53.154;17.916;2023-04-06T05:51:45;19.50;;;8.90;;
76725;SDS011;65651;53.154;17.916;2023-04-06T05:54:13;15.60;;;8.80;;
76725;SDS011;65651;53.154;17.916;2023-04-06T05:56:40;19.30;;;9.00;;
76725;SDS011;65651;53.154;17.916;2023-04-06T05:59:10;22.50;;;8.30;;
76725;SDS011;65651;53.154;17.916;2023-04-06T06:01:37;22.80;;;8.70;;
76725;SDS011;65651;53.154;17.916;2023-04-06T06:04:05;25.80;;;9.60;;
76725;SDS011;65651;53.154;17.916;2023-04-06T06:06:35;26.70;;;10.10;;
76725;SDS011;65651;53.154;17.916;2023-04-06T06:09:18;24.60;;;10.60;;
76725;SDS011;65651;53.154;17.916;2023-04-06T06:11:59;27.60;;;11.00;;
76725;SDS011;65651;53.154;17.916;2023-04-06T06:14:28;31.70;;;12.30;;
76725;SDS011;65651;53.154;17.916;2023-04-06T06:17:01;23.00;;;11.70;;
76725;SDS011;65651;53.154;17.916;2023-04-06T06:19:36;253.80;;;69.40;;
76725;SDS011;65651;53.154;17.916;2023-04-06T06:22:16;220.90;;;60.00;;
76725;SDS011;65651;53.154;17.916;2023-04-06T06:24:49;49.90;;;18.90;;
76725;SDS011;65651;53.154;17.916;2023-04-06T06:27:42;35.30;;;15.00;;
76725;SDS011;65651;53.154;17.916;2023-04-06T06:30:27;89.50;;;32.40;;
76725;SDS011;65651;53.154;17.916;2023-04-06T06:32:54;164.00;;;51.80;;
76725;SDS011;65651;53.154;17.916;2023-04-06T06:35:25;89.30;;;31.00;;
76725;SDS011;65651;53.154;17.916;2023-04-06T06:37:52;49.70;;;16.10;;
76725;SDS011;65651;53.154;17.916;2023-04-06T06:40:21;45.00;;;17.40;;
76725;SDS011;65651;53.154;17.916;2023-04-06T06:42:50;39.90;;;14.60;;
76725;SDS011;65651;53.154;17.916;2023-04-06T06:45:26;50.50;;;18.30;;
76725;SDS011;65651;53.154;17.916;2023-04-06T06:47:53;45.80;;;17.90;;
76725;SDS011;65651;53.154;17.916;2023-04-06T06:50:21;45.00;;;16.40;;
76725;SDS011;65651;53.154;17.916;2023-04-06T06:52:48;25.90;;;11.60;;
76725;SDS011;65651;53.154;17.916;2023-04-06T06:55:19;27.40;;;12.20;;
76725;SDS011;65651;53.154;17.916;2023-04-06T06:57:47;23.80;;;10.40;;
76725;SDS011;65651;53.154;17.916;2023-04-06T07:00:15;32.70;;;13.80;;
76725;SDS011;65651;53.154;17.916;2023-04-06T07:02:43;25.10;;;11.00;;
76725;SDS011;65651;53.154;17.916;2023-04-06T07:05:10;22.90;;;9.90;;
76725;SDS011;65651;53.154;17.916;2023-04-06T07:07:38;15.10;;;8.30;;
76725;SDS011;65651;53.154;17.916;2023-04-06T07:10:07;17.40;;;8.90;;
76725;SDS011;65651;53.154;17.916;2023-04-06T07:12:53;15.20;;;8.90;;
76725;SDS011;65651;53.154;17.916;2023-04-06T07:15:23;17.60;;;10.00;;
76725;SDS011;65651;53.154;17.916;2023-04-06T07:17:57;19.10;;;10.10;;
76725;SDS011;65651;53.154;17.916;2023-04-06T07:20:26;14.70;;;8.90;;
76725;SDS011;65651;53.154;17.916;2023-04-06T07:22:58;35.70;;;10.20;;
76725;SDS011;65651;53.154;17.916;2023-04-06T07:25:26;15.30;;;8.40;;
76725;SDS011;65651;53.154;17.916;2023-04-06T07:27:53;15.80;;;8.80;;
76725;SDS011;65651;53.154;17.916;2023-04-06T07:30:20;18.30;;;9.70;;
76725;SDS011;65651;53.154;17.916;2023-04-06T07:32:48;17.10;;;9.10;;
76725;SDS011;65651;53.154;17.916;2023-04-06T07:35:16;17.20;;;8.80;;
76725;SDS011;65651;53.154;17.916;2023-04-06T07:37:43;12.50;;;7.70;;
76725;SDS011;65651;53.154;17.916;2023-04-06T07:40:11;13.50;;;8.10;;
76725;SDS011;65651;53.154;17.916;2023-04-06T07:42:39;15.40;;;8.20;;
76725;SDS011;65651;53.154;17.916;2023-04-06T07:45:07;14.90;;;9.40;;
76725;SDS011;65651;53.154;17.916;2023-04-06T07:47:34;14.30;;;8.00;;
76725;SDS011;65651;53.154;17.916;2023-04-06T07:50:05;18.60;;;7.70;;
76725;SDS011;65651;53.154;17.916;2023-04-06T07:52:33;14.60;;;7.40;;
76725;SDS011;65651;53.154;17.916;2023-04-06T07:55:00;14.20;;;7.40;;
76725;SDS011;65651;53.154;17.916;2023-04-06T07:57:28;17.80;;;7.10;;
76725;SDS011;65651;53.154;17.916;2023-04-06T07:59:55;10.50;;;6.20;;
76725;SDS011;65651;53.154;17.916;2023-04-06T08:02:22;11.90;;;7.80;;
76725;SDS011;65651;53.154;17.916;2023-04-06T08:04:49;12.10;;;8.50;;
76725;SDS011;65651;53.154;17.916;2023-04-06T08:07:16;14.00;;;8.40;;
76725;SDS011;65651;53.154;17.916;2023-04-06T08:09:44;10.30;;;7.70;;
76725;SDS011;65651;53.154;17.916;2023-04-06T08:12:11;15.20;;;9.10;;
76725;SDS011;65651;53.154;17.916;2023-04-06T08:14:38;8.30;;;6.20;;
76725;SDS011;65651;53.154;17.916;2023-04-06T08:17:05;6.10;;;5.00;;
76725;SDS011;65651;53.154;17.916;2023-04-06T08:19:32;8.20;;;6.00;;
76725;SDS011;65651;53.154;17.916;2023-04-06T08:21:59;5.50;;;4.80;;
76725;SDS011;65651;53.154;17.916;2023-04-06T08:24:27;6.60;;;4.30;;
76725;SDS011;65651;53.154;17.916;2023-04-06T08:26:54;4.70;;;3.80;;
76725;SDS011;65651;53.154;17.916;2023-04-06T08:29:21;4.00;;;3.50;;
76725;SDS011;65651;53.154;17.916;2023-04-06T08:31:48;4.30;;;3.90;;
76725;SDS011;65651;53.154;17.916;2023-04-06T08:34:15;3.80;;;2.90;;
76725;SDS011;65651;53.154;17.916;2023-04-06T08:36:43;6.40;;;3.30;;
76725;SDS011;65651;53.154;17.916;2023-04-06T08:39:10;10.60;;;4.00;;
76725;SDS011;65651;53.154;17.916;2023-04-06T08:41:37;4.10;;;2.90;;
76725;SDS011;65651;53.154;17.916;2023-04-06T08:44:05;5.40;;;3.60;;
76725;SDS011;65651;53.154;17.916;2023-04-06T08:46:32;3.30;;;2.90;;
76725;SDS011;65651;53.154;17.916;2023-04-06T08:49:00;5.30;;;3.70;;
76725;SDS011;65651;53.154;17.916;2023-04-06T08:51:29;5.70;;;3.60;;
76725;SDS011;65651;53.154;17.916;2023-04-06T08:53:57;4.70;;;3.80;;
76725;SDS011;65651;53.154;17.916;2023-04-06T08:56:26;6.40;;;4.70;;
76725;SDS011;65651;53.154;17.916;2023-04-06T08:58:58;6.00;;;3.70;;
76725;SDS011;65651;53.154;17.916;2023-04-06T09:01:26;4.80;;;3.80;;
76725;SDS011;65651;53.154;17.916;2023-04-06T09:03:58;5.00;;;4.00;;
76725;SDS011;65651;53.154;17.916;2023-04-06T09:06:31;7.10;;;4.90;;
76725;SDS011;65651;53.154;17.916;2023-04-06T09:08:59;7.30;;;4.50;;
76725;SDS011;65651;53.154;17.916;2023-04-06T09:11:41;6.40;;;3.80;;
76725;SDS011;65651;53.154;17.916;2023-04-06T09:14:09;4.50;;;2.90;;
76725;SDS011;65651;53.154;17.916;2023-04-06T09:16:41;5.80;;;3.80;;
76725;SDS011;65651;53.154;17.916;2023-04-06T09:19:10;6.60;;;5.10;;
76725;SDS011;65651;53.154;17.916;2023-04-06T09:21:38;7.90;;;4.60;;
76725;SDS011;65651;53.154;17.916;2023-04-06T09:24:09;5.10;;;3.80;;
76725;SDS011;65651;53.154;17.916;2023-04-06T09:26:46;7.00;;;4.60;;
76725;SDS011;65651;53.154;17.916;2023-04-06T09:29:23;10.60;;;4.30;;
76725;SDS011;65651;53.154;17.916;2023-04-06T09:32:01;5.20;;;4.10;;
76725;SDS011;65651;53.154;17.916;2023-04-06T09:34:39;5.10;;;4.10;;
76725;SDS011;65651;53.154;17.916;2023-04-06T09:37:15;6.40;;;4.20;;
76725;SDS011;65651;53.154;17.916;2023-04-06T09:39:45;6.20;;;4.50;;
76725;SDS011;65651;53.154;17.916;2023-04-06T09:42:25;9.60;;;4.50;;
76725;SDS011;65651;53.154;17.916;2023-04-06T09:44:53;5.70;;;3.90;;
76725;SDS011;65651;53.154;17.916;2023-04-06T09:47:20;11.80;;;4.20;;
76725;SDS011;65651;53.154;17.916;2023-04-06T09:49:50;6.80;;;3.90;;
76725;SDS011;65651;53.154;17.916;2023-04-06T09:52:26;7.10;;;4.00;;
76725;SDS011;65651;53.154;17.916;2023-04-06T09:55:02;4.50;;;3.40;;
76725;SDS011;65651;53.154;17.916;2023-04-06T09:57:32;7.00;;;4.50;;
76725;SDS011;65651;53.154;17.916;2023-04-06T10:00:13;7.40;;;4.80;;
76725;SDS011;65651;53.154;17.916;2023-04-06T10:05:57;6.30;;;4.00;;
76725;SDS011;65651;53.154;17.916;2023-04-06T10:08:29;7.00;;;4.60;;
76725;SDS011;65651;53.154;17.916;2023-04-06T10:10:59;5.20;;;4.10;;
76725;SDS011;65651;53.154;17.916;2023-04-06T10:13:27;5.50;;;4.20;;
76725;SDS011;65651;53.154;17.916;2023-04-06T10:15:55;6.10;;;4.30;;
76725;SDS011;65651;53.154;17.916;2023-04-06T10:18:23;5.90;;;3.90;;
76725;SDS011;65651;53.154;17.916;2023-04-06T10:20:54;5.00;;;3.30;;
76725;SDS011;65651;53.154;17.916;2023-04-06T10:26:05;7.90;;;4.90;;
76725;SDS011;65651;53.154;17.916;2023-04-06T10:28:33;4.70;;;3.70;;
76725;SDS011;65651;53.154;17.916;2023-04-06T10:31:05;6.70;;;4.30;;
76725;SDS011;65651;53.154;17.916;2023-04-06T10:33:33;4.70;;;3.60;;
76725;SDS011;65651;53.154;17.916;2023-04-06T10:36:11;7.50;;;4.80;;
76725;SDS011;65651;53.154;17.916;2023-04-06T10:38:42;4.80;;;4.00;;
76725;SDS011;65651;53.154;17.916;2023-04-06T10:41:10;6.40;;;3.90;;
76725;SDS011;65651;53.154;17.916;2023-04-06T10:43:39;8.00;;;4.20;;
76725;SDS011;65651;53.154;17.916;2023-04-06T10:46:09;8.20;;;3.90;;
76725;SDS011;65651;53.154;17.916;2023-04-06T10:48:38;4.60;;;2.70;;
76725;SDS011;65651;53.154;17.916;2023-04-06T10:51:17;4.80;;;3.40;;
76725;SDS011;65651;53.154;17.916;2023-04-06T10:53:47;4.50;;;2.20;;
76725;SDS011;65651;53.154;17.916;2023-04-06T10:56:17;7.50;;;3.40;;
76725;SDS011;65651;53.154;17.916;2023-04-06T10:58:48;6.30;;;4.00;;
76725;SDS011;65651;53.154;17.916;2023-04-06T11:01:19;9.00;;;3.20;;
76725;SDS011;65651;53.154;17.916;2023-04-06T11:03:49;5.70;;;3.40;;
76725;SDS011;65651;53.154;17.916;2023-04-06T11:08:52;5.50;;;3.40;;
76725;SDS011;65651;53.154;17.916;2023-04-06T11:11:23;6.10;;;2.80;;
76725;SDS011;65651;53.154;17.916;2023-04-06T11:13:57;7.00;;;3.60;;
76725;SDS011;65651;53.154;17.916;2023-04-06T11:16:26;5.60;;;3.40;;
76725;SDS011;65651;53.154;17.916;2023-04-06T11:24:06;5.80;;;3.20;;
76725;SDS011;65651;53.154;17.916;2023-04-06T11:26:54;6.20;;;3.90;;
76725;SDS011;65651;53.154;17.916;2023-04-06T11:29:26;7.10;;;3.70;;
76725;SDS011;65651;53.154;17.916;2023-04-06T11:32:00;7.20;;;3.90;;
76725;SDS011;65651;53.154;17.916;2023-04-06T11:34:36;5.70;;;3.60;;
76725;SDS011;65651;53.154;17.916;2023-04-06T11:37:09;5.30;;;3.50;;
76725;SDS011;65651;53.154;17.916;2023-04-06T11:39:43;6.00;;;2.60;;
76725;SDS011;65651;53.154;17.916;2023-04-06T11:42:24;4.50;;;2.20;;
76725;SDS011;65651;53.154;17.916;2023-04-06T11:44:56;5.80;;;3.00;;
76725;SDS011;65651;53.154;17.916;2023-04-06T11:47:29;4.50;;;2.60;;
76725;SDS011;65651;53.154;17.916;2023-04-06T11:50:10;6.70;;;3.90;;
76725;SDS011;65651;53.154;17.916;2023-04-06T11:52:39;4.90;;;3.10;;
76725;SDS011;65651;53.154;17.916;2023-04-06T11:55:11;5.10;;;3.60;;
76725;SDS011;65651;53.154;17.916;2023-04-06T11:57:44;6.90;;;3.20;;
76725;SDS011;65651;53.154;17.916;2023-04-06T12:00:13;9.30;;;3.90;;
76725;SDS011;65651;53.154;17.916;2023-04-06T12:02:45;5.30;;;3.00;;
76725;SDS011;65651;53.154;17.916;2023-04-06T12:05:14;8.60;;;3.70;;
76725;SDS011;65651;53.154;17.916;2023-04-06T12:07:41;4.30;;;2.90;;
76725;SDS011;65651;53.154;17.916;2023-04-06T12:10:09;9.10;;;3.80;;
76725;SDS011;65651;53.154;17.916;2023-04-06T12:12:39;5.50;;;3.60;;
76725;SDS011;65651;53.154;17.916;2023-04-06T12:15:07;5.40;;;3.60;;
76725;SDS011;65651;53.154;17.916;2023-04-06T12:17:35;5.30;;;3.70;;
76725;SDS011;65651;53.154;17.916;2023-04-06T12:20:03;6.30;;;3.90;;
76725;SDS011;65651;53.154;17.916;2023-04-06T12:22:31;4.70;;;3.50;;
76725;SDS011;65651;53.154;17.916;2023-04-06T12:24:58;8.50;;;3.90;;
76725;SDS011;65651;53.154;17.916;2023-04-06T12:27:26;3.40;;;2.30;;
76725;SDS011;65651;53.154;17.916;2023-04-06T12:29:53;6.20;;;4.00;;
76725;SDS011;65651;53.154;17.916;2023-04-06T12:32:22;6.10;;;4.10;;
76725;SDS011;65651;53.154;17.916;2023-04-06T12:34:51;12.20;;;4.30;;
76725;SDS011;65651;53.154;17.916;2023-04-06T12:37:19;8.80;;;4.80;;
76725;SDS011;65651;53.154;17.916;2023-04-06T12:39:47;6.40;;;3.20;;
76725;SDS011;65651;53.154;17.916;2023-04-06T12:42:14;4.00;;;2.50;;
76725;SDS011;65651;53.154;17.916;2023-04-06T12:44:42;5.20;;;3.10;;
76725;SDS011;65651;53.154;17.916;2023-04-06T12:47:10;6.00;;;3.80;;
76725;SDS011;65651;53.154;17.916;2023-04-06T12:49:38;3.90;;;2.90;;
76725;SDS011;65651;53.154;17.916;2023-04-06T12:52:06;6.70;;;3.50;;
76725;SDS011;65651;53.154;17.916;2023-04-06T12:54:33;4.50;;;2.60;;
76725;SDS011;65651;53.154;17.916;2023-04-06T12:57:01;5.70;;;2.90;;
76725;SDS011;65651;53.154;17.916;2023-04-06T12:59:29;5.00;;;3.00;;
76725;SDS011;65651;53.154;17.916;2023-04-06T13:02:01;9.40;;;3.10;;
76725;SDS011;65651;53.154;17.916;2023-04-06T13:04:31;6.00;;;3.10;;
76725;SDS011;65651;53.154;17.916;2023-04-06T13:06:58;5.60;;;3.20;;
76725;SDS011;65651;53.154;17.916;2023-04-06T13:09:26;4.10;;;2.20;;
76725;SDS011;65651;53.154;17.916;2023-04-06T13:11:53;5.30;;;2.80;;
76725;SDS011;65651;53.154;17.916;2023-04-06T13:14:20;4.40;;;2.20;;
76725;SDS011;65651;53.154;17.916;2023-04-06T13:16:47;7.90;;;3.10;;
76725;SDS011;65651;53.154;17.916;2023-04-06T13:19:14;4.40;;;2.80;;
76725;SDS011;65651;53.154;17.916;2023-04-06T13:21:42;4.80;;;2.80;;
76725;SDS011;65651;53.154;17.916;2023-04-06T13:24:13;3.10;;;1.80;;
76725;SDS011;65651;53.154;17.916;2023-04-06T13:26:44;4.20;;;2.40;;
76725;SDS011;65651;53.154;17.916;2023-04-06T13:29:11;4.90;;;2.30;;
76725;SDS011;65651;53.154;17.916;2023-04-06T13:31:41;4.30;;;2.70;;
76725;SDS011;65651;53.154;17.916;2023-04-06T13:34:09;7.50;;;2.80;;
76725;SDS011;65651;53.154;17.916;2023-04-06T13:36:36;4.40;;;2.80;;
76725;SDS011;65651;53.154;17.916;2023-04-06T13:39:04;5.50;;;2.90;;
76725;SDS011;65651;53.154;17.916;2023-04-06T13:41:31;7.10;;;3.70;;
76725;SDS011;65651;53.154;17.916;2023-04-06T13:44:00;6.90;;;3.40;;
76725;SDS011;65651;53.154;17.916;2023-04-06T13:46:27;7.30;;;3.80;;
76725;SDS011;65651;53.154;17.916;2023-04-06T13:48:54;6.90;;;2.90;;
76725;SDS011;65651;53.154;17.916;2023-04-06T13:51:22;8.90;;;3.80;;
76725;SDS011;65651;53.154;17.916;2023-04-06T13:53:49;9.00;;;2.80;;
76725;SDS011;65651;53.154;17.916;2023-04-06T13:56:19;7.50;;;3.70;;
76725;SDS011;65651;53.154;17.916;2023-04-06T13:58:46;7.60;;;3.90;;
76725;SDS011;65651;53.154;17.916;2023-04-06T14:01:13;10.20;;;3.60;;
76725;SDS011;65651;53.154;17.916;2023-04-06T14:03:41;6.30;;;4.40;;
76725;SDS011;65651;53.154;17.916;2023-04-06T14:06:12;4.60;;;3.40;;
76725;SDS011;65651;53.154;17.916;2023-04-06T14:08:40;6.40;;;3.50;;
76725;SDS011;65651;53.154;17.916;2023-04-06T14:11:11;12.60;;;4.20;;
76725;SDS011;65651;53.154;17.916;2023-04-06T14:13:39;5.40;;;3.90;;
76725;SDS011;65651;53.154;17.916;2023-04-06T14:16:08;9.00;;;3.80;;
76725;SDS011;65651;53.154;17.916;2023-04-06T14:18:38;4.90;;;2.50;;
76725;SDS011;65651;53.154;17.916;2023-04-06T14:21:07;5.20;;;3.40;;
76725;SDS011;65651;53.154;17.916;2023-04-06T14:23:35;5.40;;;3.50;;
76725;SDS011;65651;53.154;17.916;2023-04-06T14:26:07;8.70;;;3.90;;
76725;SDS011;65651;53.154;17.916;2023-04-06T14:28:38;5.30;;;3.30;;
76725;SDS011;65651;53.154;17.916;2023-04-06T14:31:15;9.00;;;4.20;;
76725;SDS011;65651;53.154;17.916;2023-04-06T14:33:44;12.90;;;5.20;;
76725;SDS011;65651;53.154;17.916;2023-04-06T14:36:12;9.90;;;4.80;;
76725;SDS011;65651;53.154;17.916;2023-04-06T14:38:39;10.00;;;4.30;;
76725;SDS011;65651;53.154;17.916;2023-04-06T14:41:07;6.60;;;4.30;;
76725;SDS011;65651;53.154;17.916;2023-04-06T14:43:35;6.10;;;3.60;;
76725;SDS011;65651;53.154;17.916;2023-04-06T14:46:05;7.00;;;4.00;;
76725;SDS011;65651;53.154;17.916;2023-04-06T14:48:38;6.00;;;2.70;;
76725;SDS011;65651;53.154;17.916;2023-04-06T14:51:06;8.80;;;6.90;;
76725;SDS011;65651;53.154;17.916;2023-04-06T14:53:33;7.30;;;4.30;;
76725;SDS011;65651;53.154;17.916;2023-04-06T14:56:00;8.00;;;4.00;;
76725;SDS011;65651;53.154;17.916;2023-04-06T14:58:28;9.20;;;4.20;;